createdAt,value
2018-08-16T00:00:51.159Z,25.61
2018-08-16T00:15:50.559Z,25.53
2018-08-16T00:30:50.310Z,25.45
2018-08-16T00:45:50.383Z,25.40
2018-08-16T01:00:50.567Z,25.33
2018-08-16T01:15:50.746Z,25.31
2018-08-16T01:30:50.985Z,25.31
2018-08-16T01:45:50.721Z,25.23
2018-08-16T02:00:50.711Z,25.17
2018-08-16T02:15:50.151Z,25.17
2018-08-16T02:30:49.699Z,25.12
2018-08-16T02:45:50.107Z,25.07
2018-08-16T03:00:50.289Z,25.05
2018-08-16T03:15:51.444Z,25.02
2018-08-16T03:30:52.576Z,25.07
2018-08-16T03:45:50.493Z,24.79
2018-08-16T04:00:50.676Z,24.51
2018-08-16T04:15:52.918Z,24.65
2018-08-16T04:30:50.859Z,24.62
2018-08-16T04:45:50.829Z,24.81
2018-08-16T05:00:50.978Z,25.04
2018-08-16T05:15:50.635Z,25.68
2018-08-16T05:30:50.547Z,25.92
2018-08-16T05:45:50.456Z,26.03
2018-08-16T06:00:50.488Z,26.03
2018-08-16T06:15:50.977Z,26.67
2018-08-16T06:30:50.972Z,27.56
2018-08-16T06:45:50.851Z,28.35
2018-08-16T07:00:50.893Z,29.76
2018-08-16T07:15:50.340Z,30.72
2018-08-16T07:30:50.354Z,31.56
2018-08-16T07:45:50.475Z,32.25
2018-08-16T08:00:53.225Z,32.56
2018-08-16T08:15:50.823Z,32.96
2018-08-16T08:45:50.305Z,32.66
2018-08-16T09:00:50.720Z,32.39
2018-08-16T09:15:51.417Z,32.05
2018-08-16T10:00:56.339Z,32.09
2018-08-16T10:15:50.613Z,32.03
2018-08-16T10:30:50.797Z,32.04
2018-08-16T10:45:50.979Z,30.79
2018-08-16T11:00:50.510Z,30.32
2018-08-16T11:15:51.076Z,29.89
2018-08-16T11:30:50.903Z,30.59
2018-08-16T11:45:50.864Z,30.99
2018-08-16T12:00:51.408Z,31.30
2018-08-16T12:15:52.890Z,30.73
2018-08-16T12:30:51.319Z,30.44
2018-08-16T12:45:51.795Z,29.62
2018-08-16T13:00:54.178Z,28.99
2018-08-16T13:15:50.731Z,28.94
2018-08-16T13:30:50.795Z,28.52
2018-08-16T13:45:51.038Z,28.03
2018-08-16T14:00:51.347Z,27.95
2018-08-16T14:15:51.319Z,28.21
2018-08-16T14:30:51.588Z,28.04
2018-08-16T14:45:55.785Z,28.08
2018-08-16T15:00:50.617Z,27.68
2018-08-16T15:15:50.907Z,27.81
2018-08-16T15:30:50.747Z,27.78
2018-08-16T15:45:52.484Z,27.64
2018-08-16T16:00:50.980Z,27.51
2018-08-16T16:15:50.882Z,27.65
2018-08-16T16:30:50.968Z,27.16
2018-08-16T16:45:50.940Z,26.77
2018-08-16T17:00:51.394Z,26.59
2018-08-16T17:15:51.330Z,26.31
2018-08-16T17:30:51.335Z,26.42
2018-08-16T17:45:52.452Z,26.53
2018-08-16T18:00:50.854Z,26.74
2018-08-16T18:15:51.774Z,26.89
2018-08-16T18:30:50.773Z,26.91
2018-08-16T18:45:52.548Z,26.81
2018-08-16T19:00:51.318Z,26.68
2018-08-16T19:15:51.240Z,26.64
2018-08-16T19:30:52.724Z,26.61
2018-08-16T19:45:50.718Z,26.48
2018-08-16T20:00:50.808Z,26.46
2018-08-16T20:15:52.647Z,26.41
2018-08-16T20:30:50.720Z,26.30
2018-08-16T20:45:52.668Z,26.29
2018-08-16T21:00:57.401Z,26.28
2018-08-16T21:15:53.065Z,26.23
2018-08-16T21:30:50.969Z,26.25
2018-08-16T21:45:50.951Z,26.19
2018-08-16T22:00:53.571Z,26.13
2018-08-16T22:15:53.457Z,26.12
2018-08-16T22:30:51.420Z,26.08
2018-08-16T22:45:53.425Z,26.02
2018-08-16T23:00:50.895Z,25.98
2018-08-16T23:15:50.888Z,25.92
2018-08-16T23:30:50.737Z,25.86
2018-08-16T23:45:50.850Z,25.86
